TAF KMLU
KMLU 090532Z 0906/1006 00000KT P6SM BKN250 FM091000 16005KT P6SM BKN015 FM091800 20009G15KT P6SM OVC015 FM092000 20009G15KT P6SM OVC025 FM092200 19008KT P6SM OVC050 FM100200 18008KT P6SM OVC025=
METAR KMLU
WC KMLU
WS KMLU
WV KMLU